createdAt,value
2019-02-04T00:01:20.034Z,30.77
2019-02-04T00:03:47.117Z,19.97
2019-02-04T00:06:14.143Z,28.70
2019-02-04T00:08:40.991Z,32.00
2019-02-04T00:11:07.982Z,24.90
2019-02-04T00:13:34.776Z,26.40
2019-02-04T00:16:01.917Z,23.80
2019-02-04T00:18:28.818Z,26.27
2019-02-04T00:20:55.921Z,32.47
2019-02-04T00:23:22.844Z,30.17
2019-02-04T00:25:49.670Z,33.97
2019-02-04T00:28:16.577Z,34.80
2019-02-04T00:30:43.807Z,40.97
2019-02-04T00:33:10.710Z,39.73
2019-02-04T00:35:37.699Z,58.93
2019-02-04T00:38:04.834Z,56.30
2019-02-04T00:40:32.075Z,70.17
2019-02-04T00:42:58.983Z,68.03
2019-02-04T00:45:25.919Z,67.07
2019-02-04T00:47:52.813Z,64.83
2019-02-04T00:50:20.122Z,67.87
2019-02-04T00:52:47.295Z,66.37
2019-02-04T00:55:14.622Z,69.00
2019-02-04T00:57:41.923Z,63.17
2019-02-04T01:00:16.492Z,67.47
2019-02-04T01:02:43.389Z,75.57
2019-02-04T01:05:10.982Z,80.63
2019-02-04T01:07:37.914Z,73.60
2019-02-04T01:10:05.714Z,78.50
2019-02-04T01:12:35.697Z,73.60
2019-02-04T01:15:03.837Z,77.53
2019-02-04T01:17:30.763Z,86.90
2019-02-04T01:19:57.672Z,82.03
2019-02-04T01:22:24.711Z,71.17
2019-02-04T01:24:51.617Z,83.20
2019-02-04T01:27:18.746Z,68.30
2019-02-04T01:29:46.023Z,77.23
2019-02-04T01:32:12.851Z,77.33
2019-02-04T01:34:39.913Z,70.77
2019-02-04T01:37:06.988Z,72.00
2019-02-04T01:39:33.891Z,93.03
2019-02-04T01:42:00.774Z,66.73
2019-02-04T01:44:27.634Z,73.23
2019-02-04T01:46:54.823Z,86.67
2019-02-04T01:49:21.754Z,75.47
2019-02-04T01:51:48.805Z,70.07
2019-02-04T01:54:15.637Z,78.27
2019-02-04T01:56:42.455Z,67.20
2019-02-04T01:59:09.497Z,74.87
2019-02-04T02:01:36.303Z,65.90
2019-02-04T02:04:03.907Z,72.23
2019-02-04T02:06:30.860Z,61.53
2019-02-04T02:08:57.760Z,58.17
2019-02-04T02:11:24.655Z,59.10
2019-02-04T02:13:51.480Z,61.90
2019-02-04T02:16:18.404Z,58.87
2019-02-04T02:18:45.293Z,61.70
2019-02-04T02:21:12.523Z,68.93
2019-02-04T02:23:39.533Z,64.57
2019-02-04T02:26:06.448Z,61.57
2019-02-04T02:28:33.289Z,56.13
2019-02-04T02:31:00.117Z,69.20
2019-02-04T02:33:27.230Z,54.10
2019-02-04T02:35:54.175Z,65.03
2019-02-04T02:38:21.493Z,56.93
2019-02-04T02:40:48.498Z,52.50
2019-02-04T02:43:15.437Z,50.80
2019-02-04T02:45:42.380Z,48.23
2019-02-04T02:48:09.373Z,54.63
2019-02-04T02:50:36.340Z,57.50
2019-02-04T02:53:03.600Z,58.33
2019-02-04T02:55:30.404Z,62.67
2019-02-04T02:57:57.763Z,64.97
2019-02-04T03:00:26.707Z,61.83
2019-02-04T03:02:54.127Z,66.20
2019-02-04T03:05:21.777Z,63.20
2019-02-04T03:07:48.693Z,60.03
2019-02-04T03:10:18.608Z,66.33
2019-02-04T03:12:45.800Z,60.57
2019-02-04T03:15:13.190Z,54.40
2019-02-04T03:17:51.413Z,49.87
2019-02-04T03:20:10.407Z,48.80
2019-02-04T03:22:37.502Z,49.10
2019-02-04T03:25:05.135Z,52.67
2019-02-04T03:27:44.683Z,49.00
2019-02-04T03:30:15.611Z,51.17
2019-02-04T03:32:42.611Z,59.13
2019-02-04T03:35:09.752Z,49.73
2019-02-04T03:37:36.849Z,55.23
2019-02-04T03:40:05.141Z,68.17
2019-02-04T03:42:32.393Z,66.07
2019-02-04T03:44:59.291Z,74.80
2019-02-04T03:47:26.089Z,75.40
2019-02-04T03:49:53.043Z,72.73
2019-02-04T03:52:19.953Z,64.63
2019-02-04T03:54:48.841Z,74.90
2019-02-04T03:57:15.695Z,77.50
2019-02-04T03:59:43.031Z,94.27
2019-02-04T04:02:10.533Z,107.47
2019-02-04T04:04:37.534Z,93.40
2019-02-04T04:07:04.523Z,77.57
2019-02-04T04:09:31.535Z,86.60
2019-02-04T04:11:58.688Z,90.17
2019-02-04T04:14:25.684Z,87.47
2019-02-04T04:16:52.992Z,79.07
2019-02-04T04:19:20.142Z,87.80
2019-02-04T04:21:46.966Z,92.10
2019-02-04T04:24:13.771Z,91.10
2019-02-04T04:26:42.109Z,114.63
2019-02-04T04:29:09.123Z,92.93
2019-02-04T04:31:36.038Z,88.93
2019-02-04T04:34:22.950Z,104.60
2019-02-04T04:36:49.745Z,118.10
2019-02-04T04:39:16.667Z,103.93
2019-02-04T04:41:43.604Z,84.33
2019-02-04T04:44:10.606Z,79.70
2019-02-04T04:46:37.931Z,88.63
2019-02-04T04:49:05.090Z,109.03
2019-02-04T04:51:32.161Z,123.07
2019-02-04T04:53:59.102Z,100.33
2019-02-04T04:56:26.054Z,121.10
2019-02-04T04:58:52.851Z,85.33
2019-02-04T05:01:19.749Z,101.33
2019-02-04T05:03:46.593Z,104.60
2019-02-04T05:06:13.598Z,100.33
2019-02-04T05:08:40.402Z,110.70
2019-02-04T05:11:07.245Z,112.67
2019-02-04T05:13:34.140Z,95.27
2019-02-04T05:16:01.050Z,95.37
2019-02-04T05:18:37.910Z,95.30
2019-02-04T05:20:56.783Z,96.97
2019-02-04T05:23:23.636Z,84.23
2019-02-04T05:25:50.566Z,95.10
2019-02-04T05:28:17.461Z,82.50
2019-02-04T05:30:44.273Z,87.57
2019-02-04T05:33:11.311Z,71.07
2019-02-04T05:35:38.113Z,92.27
2019-02-04T05:38:05.145Z,91.23
2019-02-04T05:40:32.193Z,82.90
2019-02-04T05:42:59.101Z,94.57
2019-02-04T05:45:26.113Z,94.93
2019-02-04T05:47:53.156Z,98.40
2019-02-04T05:50:20.183Z,96.93
2019-02-04T05:52:47.495Z,96.80
2019-02-04T05:55:15.852Z,90.43
2019-02-04T05:57:42.827Z,93.23
2019-02-04T06:00:13.194Z,87.87
2019-02-04T06:02:40.229Z,85.03
2019-02-04T06:05:08.937Z,97.03
2019-02-04T06:07:55.511Z,78.73
2019-02-04T06:10:22.551Z,85.93
2019-02-04T06:12:49.566Z,90.43
2019-02-04T06:15:17.248Z,89.37
2019-02-04T06:17:46.462Z,72.80
2019-02-04T06:20:16.123Z,87.03
2019-02-04T06:22:43.111Z,96.20
2019-02-04T06:25:10.487Z,92.67
2019-02-04T06:27:37.536Z,91.53
2019-02-04T06:30:05.139Z,80.50
2019-02-04T06:32:34.553Z,77.73
2019-02-04T06:35:00.781Z,76.20
2019-02-04T06:37:27.709Z,70.37
2019-02-04T06:39:54.518Z,79.30
2019-02-04T06:42:21.434Z,67.17
2019-02-04T06:44:48.368Z,80.10
2019-02-04T06:47:15.183Z,73.53
2019-02-04T06:49:42.014Z,75.47
2019-02-04T06:52:09.272Z,93.63
2019-02-04T06:54:36.121Z,80.30
2019-02-04T06:57:03.162Z,85.77
2019-02-04T06:59:30.530Z,81.47
2019-02-04T07:01:57.789Z,81.03
2019-02-04T07:04:24.938Z,87.43
2019-02-04T07:06:53.314Z,79.63
2019-02-04T07:09:20.347Z,76.20
2019-02-04T07:11:47.265Z,70.57
2019-02-04T07:14:14.114Z,82.67
2019-02-04T07:16:40.954Z,75.30
2019-02-04T07:19:07.882Z,72.10
2019-02-04T07:21:34.838Z,62.43
2019-02-04T07:24:01.942Z,76.40
2019-02-04T07:26:30.301Z,70.80
2019-02-04T07:28:57.149Z,74.53
2019-02-04T07:31:24.155Z,71.13
2019-02-04T07:33:50.984Z,74.93
2019-02-04T07:36:18.406Z,71.03
2019-02-04T07:38:45.446Z,83.60
2019-02-04T07:41:14.543Z,81.23
2019-02-04T07:43:41.130Z,68.63
2019-02-04T07:46:08.138Z,76.20
2019-02-04T07:48:34.955Z,81.27
2019-02-04T07:51:02.124Z,65.20
2019-02-04T07:53:29.530Z,62.60
2019-02-04T07:55:56.423Z,58.90
2019-02-04T07:58:24.558Z,56.10
2019-02-04T08:00:51.386Z,62.67
2019-02-04T08:03:18.510Z,59.83
2019-02-04T08:05:45.545Z,64.57
2019-02-04T08:08:12.570Z,57.77
2019-02-04T08:10:39.510Z,53.63
2019-02-04T08:13:06.546Z,48.53
2019-02-04T08:15:35.736Z,53.40
2019-02-04T08:18:06.378Z,46.73
2019-02-04T08:20:33.432Z,49.67
2019-02-04T08:23:00.438Z,39.40
2019-02-04T08:25:27.746Z,40.67
2019-02-04T08:27:55.191Z,37.57
2019-02-04T08:30:27.261Z,35.57
2019-02-04T08:32:54.417Z,38.33
2019-02-04T08:35:21.457Z,40.83
2019-02-04T08:37:48.563Z,36.23
2019-02-04T08:40:15.618Z,32.63
2019-02-04T08:42:42.680Z,40.43
2019-02-04T08:45:10.407Z,38.13
2019-02-04T08:47:37.312Z,32.87
2019-02-04T08:50:05.470Z,39.20
2019-02-04T08:52:32.445Z,28.47
2019-02-04T08:54:59.285Z,31.47
2019-02-04T08:57:26.346Z,32.70
2019-02-04T08:59:53.167Z,29.10
2019-02-04T09:02:20.310Z,32.77
2019-02-04T09:04:47.661Z,31.23
2019-02-04T09:07:14.706Z,26.83
2019-02-04T09:09:41.606Z,26.33
2019-02-04T09:12:08.855Z,29.80
2019-02-04T09:14:35.854Z,24.27
2019-02-04T09:17:03.004Z,21.60
2019-02-04T09:19:29.969Z,19.40
2019-02-04T09:21:56.913Z,24.57
2019-02-04T09:24:24.234Z,20.40
2019-02-04T09:26:51.322Z,15.60
2019-02-04T09:29:18.318Z,17.83
2019-02-04T09:31:45.261Z,16.43
2019-02-04T09:34:12.398Z,12.33
2019-02-04T09:36:39.222Z,12.03
2019-02-04T09:39:07.983Z,10.67
2019-02-04T09:41:35.148Z,10.07
2019-02-04T09:44:02.204Z,13.43
2019-02-04T09:46:29.215Z,9.07
2019-02-04T09:48:56.078Z,11.30
2019-02-04T09:51:23.181Z,11.67
2019-02-04T09:53:50.194Z,9.17
2019-02-04T09:56:17.027Z,9.57
2019-02-04T09:58:43.825Z,9.73
2019-02-04T10:01:11.166Z,9.90
2019-02-04T10:03:38.206Z,10.03
2019-02-04T10:06:05.495Z,8.13
2019-02-04T10:08:34.586Z,8.90
2019-02-04T10:11:01.562Z,5.77
2019-02-04T10:13:28.558Z,10.57
2019-02-04T10:15:55.380Z,5.93
2019-02-04T10:18:22.526Z,8.90
2019-02-04T10:20:49.599Z,7.13
2019-02-04T10:23:16.681Z,7.30
2019-02-04T10:25:43.749Z,9.20
2019-02-04T10:28:11.823Z,7.93
2019-02-04T10:30:39.934Z,5.83
2019-02-04T10:33:07.070Z,7.00
2019-02-04T10:35:34.186Z,6.50
2019-02-04T10:38:01.507Z,13.80
2019-02-04T10:40:28.861Z,27.17
2019-02-04T10:42:56.133Z,10.43
2019-02-04T10:45:23.361Z,12.63
2019-02-04T10:47:50.532Z,16.30
2019-02-04T10:50:20.390Z,10.00
2019-02-04T10:52:47.394Z,12.17
2019-02-04T10:55:14.581Z,7.20
2019-02-04T10:57:41.634Z,18.07
2019-02-04T11:00:11.307Z,8.87
2019-02-04T11:02:38.454Z,19.93
2019-02-04T11:05:07.423Z,10.93
2019-02-04T11:07:34.651Z,19.37
2019-02-04T11:10:01.751Z,12.13
2019-02-04T11:12:28.601Z,15.50
2019-02-04T11:14:55.610Z,8.23
2019-02-04T11:17:22.697Z,9.13
2019-02-04T11:19:49.858Z,11.67
2019-02-04T11:22:16.917Z,6.60
2019-02-04T11:24:43.741Z,8.63
2019-02-04T11:27:11.089Z,10.73
2019-02-04T11:29:38.097Z,9.50
2019-02-04T11:32:05.615Z,8.73
2019-02-04T11:34:32.650Z,10.63
2019-02-04T11:36:59.726Z,8.33
2019-02-04T11:39:26.774Z,9.20
2019-02-04T11:41:53.909Z,9.07
2019-02-04T11:44:21.276Z,9.17
2019-02-04T11:46:48.207Z,9.77
2019-02-04T11:49:15.131Z,10.33
2019-02-04T11:51:42.251Z,10.17
2019-02-04T11:54:09.190Z,5.83
2019-02-04T11:56:36.169Z,7.10
2019-02-04T11:59:03.294Z,8.83
2019-02-04T12:01:30.743Z,9.50
2019-02-04T12:03:57.750Z,8.70
2019-02-04T12:06:24.733Z,11.03
2019-02-04T12:08:51.773Z,8.20
2019-02-04T12:11:20.523Z,11.30
2019-02-04T12:13:47.438Z,10.63
2019-02-04T12:16:14.681Z,13.50
2019-02-04T12:18:41.978Z,17.87
2019-02-04T12:21:20.045Z,10.97
2019-02-04T12:23:37.838Z,11.47
2019-02-04T12:26:04.960Z,9.00
2019-02-04T12:28:32.044Z,7.70
2019-02-04T12:30:59.081Z,11.57
2019-02-04T12:33:25.985Z,11.00
2019-02-04T12:35:53.375Z,20.40
2019-02-04T12:38:20.426Z,11.43
2019-02-04T12:40:47.221Z,32.97
2019-02-04T12:43:14.110Z,10.43
2019-02-04T12:45:41.536Z,11.50
2019-02-04T12:48:08.725Z,9.53
2019-02-04T12:50:35.725Z,10.67
2019-02-04T12:53:02.965Z,11.07
2019-02-04T12:55:30.465Z,9.27
2019-02-04T12:57:57.463Z,13.50
2019-02-04T13:00:26.143Z,16.27
2019-02-04T13:02:53.534Z,23.77
2019-02-04T13:05:26.175Z,11.80
2019-02-04T13:07:53.263Z,9.57
2019-02-04T13:10:20.770Z,16.17
2019-02-04T13:12:47.767Z,25.97
2019-02-04T13:15:17.258Z,13.10
2019-02-04T13:17:44.183Z,17.50
2019-02-04T13:20:13.050Z,16.80
2019-02-04T13:22:40.146Z,15.37
2019-02-04T13:25:08.174Z,17.33
2019-02-04T13:27:35.584Z,14.30
2019-02-04T13:30:03.590Z,43.80
2019-02-04T13:32:30.390Z,17.13
2019-02-04T13:34:57.173Z,20.80
2019-02-04T13:37:24.129Z,55.77
2019-02-04T13:39:51.125Z,30.30
2019-02-04T13:42:18.041Z,18.23
2019-02-04T13:44:45.409Z,34.03
2019-02-04T13:47:12.317Z,12.87
2019-02-04T13:49:39.117Z,15.70
2019-02-04T13:52:06.186Z,32.27
2019-02-04T13:54:33.182Z,23.93
2019-02-04T13:56:59.997Z,17.47
2019-02-04T13:59:26.846Z,17.87
2019-02-04T14:01:54.256Z,19.00
2019-02-04T14:04:21.382Z,14.67
2019-02-04T14:06:48.426Z,13.47
2019-02-04T14:09:19.753Z,19.03
2019-02-04T14:11:46.829Z,13.80
2019-02-04T14:14:13.772Z,21.63
2019-02-04T14:16:40.678Z,17.33
2019-02-04T14:19:07.483Z,19.33
2019-02-04T14:21:35.224Z,18.67
2019-02-04T14:24:02.243Z,15.93
2019-02-04T14:26:29.254Z,15.20
2019-02-04T14:28:56.190Z,16.33
2019-02-04T14:31:23.177Z,15.90
2019-02-04T14:33:50.093Z,19.67
2019-02-04T14:36:17.139Z,20.03
2019-02-04T14:38:44.245Z,18.90
2019-02-04T14:41:11.351Z,17.43
2019-02-04T14:43:55.637Z,21.43
2019-02-04T14:46:51.222Z,18.40
2019-02-04T14:50:12.613Z,23.03
2019-02-04T14:53:39.826Z,20.50
2019-02-04T14:56:25.722Z,20.73
2019-02-04T14:59:13.125Z,16.17
2019-02-04T15:02:17.896Z,20.70
2019-02-04T15:05:00.057Z,25.73
2019-02-04T15:08:13.906Z,23.30
2019-02-04T15:11:18.343Z,20.77
2019-02-04T15:14:26.899Z,19.93
2019-02-04T15:17:16.339Z,19.17
2019-02-04T15:20:25.382Z,22.20
2019-02-04T15:23:37.138Z,21.03
2019-02-04T15:27:16.550Z,25.93
2019-02-04T15:29:54.117Z,20.47
2019-02-04T15:32:43.410Z,20.97
2019-02-04T15:35:51.259Z,22.93
2019-02-04T15:38:40.558Z,23.60
2019-02-04T15:41:17.112Z,26.93
2019-02-04T15:44:08.197Z,21.60
2019-02-04T15:46:53.253Z,23.50
2019-02-04T15:49:58.269Z,18.50
2019-02-04T15:52:25.349Z,21.20
2019-02-04T15:54:52.269Z,21.53
2019-02-04T15:57:19.491Z,21.90
2019-02-04T15:59:46.306Z,18.47
2019-02-04T16:02:13.419Z,19.97
2019-02-04T16:04:40.345Z,19.57
2019-02-04T16:07:08.971Z,22.23
2019-02-04T16:09:35.878Z,21.70
2019-02-04T16:12:03.072Z,24.20
2019-02-04T16:14:30.346Z,18.90
2019-02-04T16:16:57.330Z,21.07
2019-02-04T16:19:24.348Z,22.70
2019-02-04T16:21:51.302Z,19.23
2019-02-04T16:24:18.194Z,18.67
2019-02-04T16:26:45.849Z,20.93
2019-02-04T16:29:12.844Z,23.83
2019-02-04T16:31:39.939Z,20.90
2019-02-04T16:34:07.065Z,19.87
2019-02-04T16:36:33.875Z,20.77
2019-02-04T16:39:00.873Z,19.43
2019-02-04T16:41:27.710Z,21.47
2019-02-04T16:43:54.612Z,22.10
2019-02-04T16:46:21.431Z,25.33
2019-02-04T16:48:48.293Z,21.17
2019-02-04T16:51:15.605Z,20.93
2019-02-04T16:53:42.397Z,19.60
2019-02-04T16:56:09.437Z,23.03
2019-02-04T16:58:36.254Z,19.13
2019-02-04T17:01:03.846Z,22.10
2019-02-04T17:03:30.666Z,22.70
2019-02-04T17:05:57.617Z,23.17
2019-02-04T17:08:24.629Z,22.47
2019-02-04T17:10:51.681Z,21.93
2019-02-04T17:13:18.657Z,20.37
2019-02-04T17:15:45.445Z,18.80
2019-02-04T17:18:12.289Z,20.37
2019-02-04T17:20:39.420Z,20.80
2019-02-04T17:23:06.457Z,17.97
2019-02-04T17:25:33.389Z,19.30
2019-02-04T17:28:00.886Z,16.67
2019-02-04T17:30:28.132Z,20.83
2019-02-04T17:32:55.260Z,20.13
2019-02-04T17:35:22.358Z,19.33
2019-02-04T17:37:49.401Z,21.63
2019-02-04T17:40:18.585Z,20.93
2019-02-04T17:42:45.554Z,18.80
2019-02-04T17:45:14.106Z,20.73
2019-02-04T17:47:41.434Z,18.83
2019-02-04T17:50:09.738Z,17.53
2019-02-04T17:52:36.558Z,19.50
2019-02-04T17:55:05.929Z,17.43
2019-02-04T17:57:32.830Z,17.30
2019-02-04T17:59:59.839Z,19.47
2019-02-04T18:02:27.274Z,17.87
2019-02-04T18:04:54.275Z,17.03
2019-02-04T18:07:21.167Z,17.67
2019-02-04T18:09:48.230Z,12.63
2019-02-04T18:12:15.023Z,17.10
2019-02-04T18:14:42.182Z,18.43
2019-02-04T18:17:09.276Z,19.97
2019-02-04T18:19:36.804Z,15.73
2019-02-04T18:22:03.949Z,16.23
2019-02-04T18:24:30.794Z,16.53
2019-02-04T18:26:58.086Z,16.83
2019-02-04T18:29:24.974Z,17.70
2019-02-04T18:31:51.897Z,17.13
2019-02-04T18:34:19.012Z,15.03
2019-02-04T18:36:47.100Z,15.60
2019-02-04T18:39:14.662Z,16.00
2019-02-04T18:41:41.641Z,16.10
2019-02-04T18:44:08.581Z,16.57
2019-02-04T18:46:35.825Z,17.33
2019-02-04T18:49:03.289Z,15.47
2019-02-04T18:51:30.586Z,16.87
2019-02-04T18:53:58.155Z,16.63
2019-02-04T18:56:25.149Z,14.53
2019-02-04T18:58:51.952Z,16.07
2019-02-04T19:01:18.800Z,13.13
2019-02-04T19:03:45.942Z,16.53
2019-02-04T19:06:12.937Z,14.53
2019-02-04T19:08:39.998Z,20.37
2019-02-04T19:11:07.222Z,17.07
2019-02-04T19:13:36.258Z,13.73
2019-02-04T19:16:03.734Z,13.87
2019-02-04T19:18:30.542Z,17.83
2019-02-04T19:20:57.549Z,15.33
2019-02-04T19:23:26.972Z,15.47
2019-02-04T19:25:53.357Z,16.70
2019-02-04T19:28:20.792Z,13.00
2019-02-04T19:30:52.514Z,16.70
2019-02-04T19:33:20.728Z,13.43
2019-02-04T19:35:47.723Z,12.90
2019-02-04T19:38:14.609Z,15.80
2019-02-04T19:40:41.618Z,15.07
2019-02-04T19:43:08.513Z,13.57
2019-02-04T19:45:35.352Z,13.17
2019-02-04T19:48:03.267Z,14.87
2019-02-04T19:50:30.885Z,15.67
2019-02-04T19:52:57.974Z,15.50
2019-02-04T19:55:25.068Z,16.37
2019-02-04T19:57:52.285Z,15.47
2019-02-04T20:00:20.730Z,13.17
2019-02-04T20:02:48.387Z,14.70
2019-02-04T20:05:17.451Z,16.40
2019-02-04T20:07:44.541Z,16.20
2019-02-04T20:10:12.199Z,17.47
2019-02-04T20:12:39.424Z,17.87
2019-02-04T20:15:10.010Z,26.43
2019-02-04T20:17:37.035Z,25.00
2019-02-04T20:20:04.774Z,20.57
2019-02-04T20:22:31.630Z,26.27
2019-02-04T20:24:58.518Z,27.97
2019-02-04T20:27:27.192Z,25.33
2019-02-04T20:29:54.390Z,18.77
2019-02-04T20:32:21.294Z,21.00
2019-02-04T20:34:48.192Z,28.07
2019-02-04T20:37:15.565Z,23.10
2019-02-04T20:39:42.584Z,26.33
2019-02-04T20:42:09.502Z,26.20
2019-02-04T20:44:36.346Z,30.20
2019-02-04T20:47:03.755Z,32.50
2019-02-04T20:49:30.750Z,33.60
2019-02-04T20:51:57.862Z,36.20
2019-02-04T20:54:24.741Z,29.77
2019-02-04T20:56:51.989Z,35.03
2019-02-04T20:59:18.930Z,37.10
2019-02-04T21:01:45.862Z,29.60
2019-02-04T21:04:12.890Z,31.57
2019-02-04T21:06:39.830Z,28.17
2019-02-04T21:09:08.167Z,27.67
2019-02-04T21:11:35.198Z,28.83
2019-02-04T21:14:03.066Z,28.53
2019-02-04T21:16:29.889Z,30.67
2019-02-04T21:18:56.722Z,25.00
2019-02-04T21:21:23.811Z,29.47
2019-02-04T21:23:50.979Z,29.97
2019-02-04T21:26:18.146Z,29.87
2019-02-04T21:28:45.256Z,26.03
2019-02-04T21:31:12.182Z,23.80
2019-02-04T21:33:39.116Z,27.60
2019-02-04T21:36:06.202Z,23.53
2019-02-04T21:38:33.401Z,25.67
2019-02-04T21:41:00.431Z,23.13
2019-02-04T21:43:27.341Z,22.27
2019-02-04T21:45:54.690Z,21.93
2019-02-04T21:48:21.630Z,20.20
2019-02-04T21:50:49.375Z,23.07
2019-02-04T21:53:16.307Z,19.17
2019-02-04T21:55:44.690Z,19.37
2019-02-04T21:58:11.789Z,18.93
2019-02-04T22:00:39.357Z,18.67
2019-02-04T22:03:06.513Z,20.40
2019-02-04T22:05:33.667Z,17.90
2019-02-04T22:08:01.216Z,19.60
2019-02-04T22:10:28.851Z,13.87
2019-02-04T22:12:56.899Z,18.53
2019-02-04T22:15:24.039Z,18.80
2019-02-04T22:17:51.169Z,22.13
2019-02-04T22:20:18.486Z,17.40
2019-02-04T22:22:45.598Z,18.80
2019-02-04T22:25:19.678Z,20.87
2019-02-04T22:27:42.783Z,18.80
2019-02-04T22:30:13.151Z,22.30
2019-02-04T22:32:40.369Z,20.40
2019-02-04T22:35:07.918Z,19.47
2019-02-04T22:37:35.018Z,17.97
2019-02-04T22:40:02.136Z,19.50
2019-02-04T22:42:29.178Z,18.77
2019-02-04T22:44:56.500Z,22.20
2019-02-04T22:47:23.317Z,20.10
2019-02-04T22:49:50.262Z,21.57
2019-02-04T22:52:17.272Z,20.80
2019-02-04T22:54:44.081Z,20.33
2019-02-04T22:57:11.216Z,17.83
2019-02-04T22:59:38.274Z,18.47
2019-02-04T23:02:05.822Z,18.63
2019-02-04T23:04:32.670Z,17.70
2019-02-04T23:06:59.706Z,20.57
2019-02-04T23:09:26.727Z,20.80
2019-02-04T23:11:53.761Z,23.43
2019-02-04T23:14:20.763Z,18.90
2019-02-04T23:16:47.794Z,22.87
2019-02-04T23:19:14.657Z,20.37
2019-02-04T23:21:41.566Z,21.77
2019-02-04T23:24:08.478Z,21.30
2019-02-04T23:26:35.634Z,22.27
2019-02-04T23:29:03.046Z,22.90
2019-02-04T23:31:30.037Z,23.37
2019-02-04T23:33:56.872Z,24.93
2019-02-04T23:36:23.797Z,21.20
2019-02-04T23:38:50.798Z,25.17
2019-02-04T23:41:17.766Z,28.97
2019-02-04T23:43:44.764Z,25.00
2019-02-04T23:46:11.783Z,26.70
2019-02-04T23:48:38.736Z,25.30
2019-02-04T23:51:05.957Z,26.60
2019-02-04T23:53:32.795Z,26.03
2019-02-04T23:56:00.145Z,24.00
2019-02-04T23:58:26.978Z,28.57
